Time;durP1;ratioP1;P1;durP2;ratioP2;P2;SDS_P1;SDS_P2;PMS_P1;PMS_P2;Temp;Humidity;BMP_temperature;BMP_pressure;BME280_temperature;BME280_humidity;BME280_pressure;Samples;Min_cycle;Max_cycle;Signal;HPM_P1;HPM_P2
2023/01/18 00:00:29;;;;;;;11.48;2.80;;;;;;;11.02;75.91;95210.19;5051003;28;20053;-64
2023/01/18 00:02:58;;;;;;;11.50;2.55;;;;;;;10.94;75.79;95208.03;5050878;28;20048;-67
2023/01/18 00:05:26;;;;;;;13.13;2.65;;;;;;;10.87;75.98;95212.78;5051004;28;20422;-65
2023/01/18 00:07:53;;;;;;;17.17;2.90;;;;;;;10.91;75.82;95213.44;5050938;28;20452;-65
2023/01/18 00:10:21;;;;;;;14.15;2.97;;;;;;;10.97;75.19;95220.94;5050657;28;20140;-64
2023/01/18 00:12:49;;;;;;;15.80;2.78;;;;;;;10.99;75.71;95216.44;5050856;28;20109;-67
2023/01/18 00:15:17;;;;;;;23.88;3.42;;;;;;;10.97;75.42;95217.47;5050811;28;20049;-66
2023/01/18 00:17:51;;;;;;;16.77;3.03;;;;;;;10.95;75.51;95201.00;5050824;28;20049;-67
2023/01/18 00:20:21;;;;;;;12.90;3.03;;;;;;;10.94;75.40;95213.25;5050915;28;20054;-65
2023/01/18 00:22:49;;;;;;;12.88;2.95;;;;;;;10.97;75.21;95215.69;5050649;28;20593;-66
2023/01/18 00:25:16;;;;;;;14.43;2.70;;;;;;;10.96;75.22;95211.38;5050708;28;20497;-67
2023/01/18 00:27:46;;;;;;;13.95;2.45;;;;;;;10.91;75.15;95212.59;5050601;28;20132;-65
2023/01/18 00:30:16;;;;;;;21.40;2.83;;;;;;;10.96;74.85;95219.22;5050606;28;20053;-65
2023/01/18 00:32:43;;;;;;;7.65;2.55;;;;;;;10.96;74.99;95224.47;5050535;28;20045;-66
2023/01/18 00:35:11;;;;;;;19.05;3.55;;;;;;;10.87;75.20;95227.66;5050543;28;20132;-65
2023/01/18 00:37:40;;;;;;;8.57;2.40;;;;;;;10.88;75.15;95226.72;5050521;28;20094;-66
2023/01/18 00:40:08;;;;;;;14.15;3.10;;;;;;;10.95;74.52;95230.63;5050466;28;20057;-65
2023/01/18 00:45:20;;;;;;;10.00;2.90;;;;;;;11.03;74.07;95226.72;5019761;28;20084;-66
2023/01/18 00:47:47;;;;;;;11.50;2.72;;;;;;;11.01;74.20;95221.56;5050285;28;20128;-67
2023/01/18 00:50:15;;;;;;;18.13;2.97;;;;;;;10.99;74.08;95221.66;5050215;28;20052;-62
2023/01/18 00:52:45;;;;;;;17.83;3.22;;;;;;;11.05;73.67;95215.22;5050287;28;20212;-65
2023/01/18 00:55:12;;;;;;;20.23;3.58;;;;;;;11.08;73.69;95216.81;5050202;28;20045;-66
2023/01/18 00:57:40;;;;;;;11.85;2.92;;;;;;;11.08;73.10;95222.88;5050138;28;20076;-66
2023/01/18 01:00:11;;;;;;;12.75;2.55;;;;;;;11.14;73.00;95212.97;5050132;28;20081;-64
2023/01/18 01:02:39;;;;;;;14.15;2.75;;;;;;;11.12;72.99;95220.91;5050140;28;20049;-64
2023/01/18 01:07:53;;;;;;;9.57;2.55;;;;;;;11.10;73.28;95207.06;5050146;28;20407;-64
2023/01/18 01:10:21;;;;;;;10.02;2.40;;;;;;;11.16;72.82;95217.19;5050009;28;20498;-65
2023/01/18 01:26:35;;;;;;;17.80;2.83;;;;;;;11.21;72.91;95211.66;5053493;28;20051;-68
2023/01/18 01:29:02;;;;;;;17.23;3.17;;;;;;;11.23;72.85;95202.78;5053287;28;20406;-67
2023/01/18 01:31:29;;;;;;;12.77;2.65;;;;;;;11.23;73.07;95205.38;5053304;28;20044;-67
2023/01/18 01:33:56;;;;;;;19.90;3.42;;;;;;;11.22;73.11;95208.94;5053141;28;20079;-64
2023/01/18 01:36:26;;;;;;;9.27;2.25;;;;;;;11.18;73.33;95204.84;5053277;28;20045;-64
2023/01/18 01:38:55;;;;;;;13.93;2.75;;;;;;;11.15;72.81;95202.41;5053268;28;20067;-64
2023/01/18 01:41:25;;;;;;;13.45;2.60;;;;;;;11.20;72.26;95204.75;5053469;28;20091;-65
2023/01/18 01:43:54;;;;;;;18.15;3.00;;;;;;;11.18;72.55;95196.16;5053240;28;20109;-64
2023/01/18 01:46:30;;;;;;;15.73;2.80;;;;;;;11.15;72.64;95201.56;5052954;28;20391;-66
2023/01/18 01:49:02;;;;;;;20.60;2.50;;;;;;;11.22;72.05;95200.25;5053200;28;20045;-66
2023/01/18 01:51:29;;;;;;;13.82;3.53;;;;;;;11.17;72.47;95191.84;5052979;28;20461;-63
2023/01/18 01:54:02;;;;;;;14.00;3.28;;;;;;;11.08;72.89;95181.00;5053216;28;20422;-63
2023/01/18 01:56:31;;;;;;;12.43;2.65;;;;;;;11.14;72.61;95189.44;5052944;28;20051;-67
2023/01/18 01:59:01;;;;;;;14.35;3.50;;;;;;;11.17;72.51;95199.72;5052951;28;20128;-66
2023/01/18 02:01:29;;;;;;;15.90;2.55;;;;;;;11.18;72.34;95220.56;5053023;28;20049;-64
2023/01/18 02:03:59;;;;;;;9.20;2.70;;;;;;;11.16;72.49;95208.47;5052871;28;20505;-68
2023/01/18 02:06:31;;;;;;;18.70;3.05;;;;;;;11.15;72.89;95202.41;5052937;28;20102;-65
2023/01/18 02:09:01;;;;;;;17.63;4.25;;;;;;;11.17;72.83;95202.31;5052997;28;20041;-64
2023/01/18 02:11:29;;;;;;;19.58;3.28;;;;;;;11.14;73.04;95205.13;5052716;28;20091;-68
2023/01/18 02:13:59;;;;;;;22.90;3.00;;;;;;;10.99;73.35;95205.97;5052773;28;20045;-68
2023/01/18 02:16:42;;;;;;;17.38;3.55;;;;;;;11.01;72.87;95210.28;5052811;28;20077;-66
2023/01/18 02:19:24;;;;;;;12.45;2.45;;;;;;;11.06;73.05;95218.69;5052580;28;20441;-68
2023/01/18 02:21:57;;;;;;;9.23;2.55;;;;;;;11.06;72.44;95201.22;5052549;28;20105;-62
2023/01/18 02:24:51;;;;;;;16.00;3.00;;;;;;;11.08;72.57;95225.50;5052601;28;20053;-65
2023/01/18 02:27:22;;;;;;;16.75;3.25;;;;;;;11.04;72.90;95200.44;5052437;28;20149;-66
2023/01/18 02:30:02;;;;;;;14.13;2.90;;;;;;;11.01;73.25;95205.03;5052802;28;20097;-64
2023/01/18 02:32:59;;;;;;;21.73;3.55;;;;;;;11.04;73.00;95205.69;5051236;28;20084;-66
2023/01/18 02:35:36;;;;;;;15.63;3.22;;;;;;;11.04;73.17;95208.31;5052370;28;20140;-63
2023/01/18 02:38:10;;;;;;;23.02;2.70;;;;;;;10.99;73.44;95213.00;5052336;28;20041;-65
2023/01/18 02:40:46;;;;;;;16.52;3.00;;;;;;;10.97;73.77;95218.31;5052262;28;20102;-63
2023/01/18 02:48:51;;;;;;;17.00;2.88;;;;;;;10.90;74.33;95213.53;5052193;28;20501;-67
2023/01/18 02:51:18;;;;;;;19.83;3.85;;;;;;;10.90;74.11;95227.47;5052024;28;20140;-67
2023/01/18 02:53:47;;;;;;;19.50;3.40;;;;;;;10.96;73.93;95224.47;5052138;28;20084;-65
2023/01/18 02:56:18;;;;;;;18.88;2.83;;;;;;;10.97;74.10;95222.69;5052112;28;20076;-65
2023/01/18 02:58:48;;;;;;;20.95;2.95;;;;;;;10.97;74.12;95223.53;5052038;28;20076;-67
2023/01/18 03:01:25;;;;;;;22.35;3.88;;;;;;;10.95;74.10;95228.03;5051884;28;20137;-67
2023/01/18 03:03:57;;;;;;;15.98;3.05;;;;;;;10.92;74.46;95217.75;5051791;28;20483;-66
2023/01/18 03:06:28;;;;;;;16.77;2.95;;;;;;;10.92;74.44;95220.34;5051905;28;20041;-68
2023/01/18 03:08:57;;;;;;;15.50;3.53;;;;;;;10.89;74.52;95225.78;5051809;28;20589;-67
2023/01/18 03:11:33;;;;;;;25.75;3.58;;;;;;;10.85;74.83;95222.50;5051739;28;20045;-65
2023/01/18 03:14:10;;;;;;;14.38;2.92;;;;;;;10.83;74.85;95228.75;5051657;28;20071;-64
2023/01/18 03:16:56;;;;;;;19.92;3.35;;;;;;;10.80;74.65;95219.31;5051750;28;20045;-65
2023/01/18 03:23:36;;;;;;;19.58;3.22;;;;;;;10.86;74.51;95221.56;5051685;28;20064;-66
2023/01/18 03:25:06;;;;;;;23.92;3.22;;;;;;;10.90;74.41;95231.84;5051543;28;20136;-63
2023/01/18 03:35:54;;;;;;;18.67;3.33;;;;;;;10.81;74.04;95207.09;5051767;28;20505;-64
2023/01/18 03:38:22;;;;;;;;;;;;;;;10.77;73.79;95216.88;5051788;28;20045;-67
2023/01/18 03:40:49;;;;;;;14.88;2.53;;;;;;;10.73;73.98;95221.47;5051343;28;19939;-67
2023/01/18 03:43:19;;;;;;;16.95;2.70;;;;;;;10.70;73.98;95215.56;5051186;28;20444;-65
2023/01/18 03:45:49;;;;;;;13.38;2.72;;;;;;;10.71;73.57;95215.47;5050884;28;20050;-65
2023/01/18 03:48:18;;;;;;;16.58;3.33;;;;;;;10.75;73.53;95218.78;5051199;28;20048;-64
2023/01/18 03:50:50;;;;;;;23.67;3.15;;;;;;;10.76;73.29;95215.22;5051170;28;20052;-63
2023/01/18 03:53:27;;;;;;;12.70;3.10;;;;;;;10.81;73.06;95221.00;5051094;28;20056;-63
2023/01/18 03:55:59;;;;;;;17.35;3.00;;;;;;;10.70;73.19;95208.56;5051073;28;20045;-67
2023/01/18 03:58:32;;;;;;;13.70;2.97;;;;;;;10.67;73.64;95208.75;5051116;28;20093;-66
2023/01/18 04:01:02;;;;;;;21.60;3.08;;;;;;;10.70;73.34;95211.19;5051025;28;20049;-63
2023/01/18 04:03:32;;;;;;;14.45;2.20;;;;;;;10.70;72.95;95220.81;5050967;28;20599;-64
2023/01/18 04:06:00;;;;;;;18.60;3.47;;;;;;;10.77;72.08;95213.44;5050999;28;20081;-68
2023/01/18 04:08:27;;;;;;;18.48;3.08;;;;;;;10.77;72.31;95224.72;5050925;28;20100;-66
2023/01/18 04:10:55;;;;;;;12.75;3.15;;;;;;;10.83;71.77;95220.91;5050814;28;20128;-66
2023/01/18 04:13:22;;;;;;;11.93;2.47;;;;;;;10.90;71.52;95229.25;5050769;28;20052;-65
2023/01/18 04:15:49;;;;;;;14.98;3.53;;;;;;;10.96;71.34;95229.69;5050663;28;20052;-64
2023/01/18 04:18:16;;;;;;;21.17;2.50;;;;;;;11.01;71.22;95223.38;5050849;28;20128;-65
2023/01/18 04:20:45;;;;;;;15.45;2.92;;;;;;;11.05;71.06;95232.69;5050796;28;20118;-63
2023/01/18 04:23:12;;;;;;;14.63;2.72;;;;;;;11.05;71.13;95230.09;5050685;28;20045;-63
2023/01/18 04:25:40;;;;;;;19.13;3.22;;;;;;;10.99;71.51;95233.91;5050688;28;20056;-64
2023/01/18 04:28:07;;;;;;;15.70;3.03;;;;;;;10.97;71.81;95241.84;5050604;28;20049;-66
2023/01/18 04:30:34;;;;;;;17.80;3.33;;;;;;;11.02;71.60;95246.81;5050490;28;20070;-64
2023/01/18 04:33:02;;;;;;;29.38;3.85;;;;;;;11.06;71.50;95253.53;5050525;28;20091;-68
2023/01/18 04:35:30;;;;;;;16.25;3.17;;;;;;;11.03;71.65;95253.72;5050450;28;20132;-64
2023/01/18 04:37:59;;;;;;;17.33;2.70;;;;;;;11.04;71.67;95258.00;5050466;28;20072;-67
2023/01/18 04:40:26;;;;;;;14.55;2.47;;;;;;;11.05;71.61;95246.59;5050484;28;20045;-65
2023/01/18 04:42:53;;;;;;;20.00;3.20;;;;;;;11.03;71.86;95239.78;5050369;28;20429;-66
2023/01/18 04:45:21;;;;;;;19.40;3.30;;;;;;;10.99;71.72;95239.97;5050092;28;20052;-65
2023/01/18 04:47:48;;;;;;;27.55;4.38;;;;;;;11.00;71.79;95246.06;5050395;27;20088;-66
2023/01/18 04:50:18;;;;;;;23.30;4.93;;;;;;;11.01;72.11;95242.50;5050234;28;20084;-64
2023/01/18 04:52:45;;;;;;;23.30;3.97;;;;;;;10.98;72.78;95238.31;5050426;28;20049;-66
2023/01/18 04:55:14;;;;;;;18.13;2.70;;;;;;;10.96;73.10;95236.72;5049955;28;20447;-67
2023/01/18 04:57:43;;;;;;;19.25;3.60;;;;;;;10.94;73.45;95241.19;5049751;28;20088;-69
2023/01/18 05:00:13;;;;;;;28.42;4.03;;;;;;;10.93;73.53;95239.53;5050177;28;20414;-68
2023/01/18 05:02:40;;;;;;;11.27;3.00;;;;;;;10.96;73.25;95242.78;5050112;28;20513;-64
2023/01/18 05:05:08;;;;;;;22.13;3.60;;;;;;;10.84;73.81;95249.59;5049999;28;20053;-64
2023/01/18 05:07:35;;;;;;;29.08;3.88;;;;;;;10.90;73.54;95247.56;5050091;28;20045;-65
2023/01/18 05:10:03;;;;;;;17.17;2.95;;;;;;;10.91;73.33;95241.38;5049956;28;20095;-65
2023/01/18 05:12:32;;;;;;;24.38;3.72;;;;;;;10.86;73.62;95247.72;5049910;28;20511;-64
2023/01/18 05:14:59;;;;;;;17.67;3.38;;;;;;;10.83;73.70;95250.53;5050136;28;20129;-67
2023/01/18 05:17:29;;;;;;;16.45;3.05;;;;;;;10.79;74.04;95254.25;5049881;28;20102;-64
2023/01/18 05:19:56;;;;;;;24.52;3.83;;;;;;;10.79;73.91;95248.19;5049911;28;20051;-67
2023/01/18 05:22:25;;;;;;;14.73;3.30;;;;;;;10.81;72.65;95254.16;5050001;28;20049;-69
2023/01/18 05:24:52;;;;;;;16.95;2.85;;;;;;;10.96;72.25;95260.25;5049768;28;20053;-67
2023/01/18 05:27:19;;;;;;;17.88;2.88;;;;;;;10.99;72.44;95263.53;5049885;28;20129;-67
2023/01/18 05:29:49;;;;;;;19.90;3.40;;;;;;;11.04;72.50;95267.63;5050192;28;20060;-67
2023/01/18 05:32:17;;;;;;;20.38;4.95;;;;;;;11.04;72.38;95272.88;5049740;28;20051;-63
2023/01/18 05:34:44;;;;;;;25.95;3.65;;;;;;;11.00;72.56;95259.13;5049780;28;20080;-65
2023/01/18 05:37:12;;;;;;;18.25;3.28;;;;;;;10.99;72.62;95260.09;5049682;28;20577;-66
2023/01/18 05:39:39;;;;;;;21.95;4.72;;;;;;;10.92;73.00;95269.22;5049604;28;20045;-65
2023/01/18 05:42:07;;;;;;;19.42;3.90;;;;;;;10.91;72.95;95270.16;5049735;28;20426;-68
2023/01/18 05:44:34;;;;;;;18.73;3.80;;;;;;;10.84;73.11;95278.34;5049484;28;20573;-64
2023/01/18 05:47:03;;;;;;;27.23;3.92;;;;;;;10.83;73.31;95268.84;5049686;28;20082;-67
2023/01/18 05:49:30;;;;;;;15.77;3.40;;;;;;;10.79;73.41;95269.97;5049660;28;20045;-64
2023/01/18 05:51:57;;;;;;;20.75;3.25;;;;;;;10.82;73.48;95263.69;5049659;28;20045;-65
2023/01/18 05:54:26;;;;;;;18.25;3.60;;;;;;;10.79;73.69;95262.09;5049533;27;20140;-65
2023/01/18 05:56:53;;;;;;;17.77;3.20;;;;;;;10.75;73.90;95265.84;5049394;28;20052;-66
2023/01/18 05:59:20;;;;;;;26.25;3.95;;;;;;;10.78;74.08;95275.28;5049357;28;20053;-64
2023/01/18 06:01:47;;;;;;;17.40;3.45;;;;;;;10.81;74.14;95262.84;5049527;28;20041;-64
2023/01/18 06:04:16;;;;;;;22.42;4.13;;;;;;;10.85;74.15;95260.91;5049520;28;20077;-62
2023/01/18 06:06:43;;;;;;;20.40;3.65;;;;;;;10.81;74.57;95275.91;5049499;28;20102;-63
2023/01/18 06:09:10;;;;;;;29.80;3.67;;;;;;;10.85;74.33;95266.97;5052802;28;20451;-64
2023/01/18 06:11:37;;;;;;;21.08;3.55;;;;;;;10.86;74.25;95278.25;5052790;28;20045;-67
2023/01/18 06:14:04;;;;;;;22.40;3.78;;;;;;;10.84;74.46;95267.06;5052667;28;20049;-65
2023/01/18 06:16:32;;;;;;;31.55;6.53;;;;;;;10.93;73.90;95287.44;5052704;28;20049;-67
2023/01/18 06:19:00;;;;;;;23.15;3.95;;;;;;;11.01;73.61;95286.97;5052724;28;20080;-65
2023/01/18 06:21:28;;;;;;;26.35;3.97;;;;;;;11.09;73.46;95295.22;5052567;28;20045;-66
2023/01/18 06:23:56;;;;;;;25.23;4.38;;;;;;;11.59;72.16;95296.63;5052526;28;20475;-65
2023/01/18 06:26:23;;;;;;;25.42;3.38;;;;;;;12.30;68.55;95290.47;5052694;28;20056;-64
2023/01/18 06:28:50;;;;;;;19.27;4.28;;;;;;;12.96;66.62;95294.94;5052503;28;20482;-66
2023/01/18 06:31:17;;;;;;;17.45;3.40;;;;;;;13.56;64.33;95297.06;5052546;28;20053;-67
2023/01/18 06:33:44;;;;;;;20.15;3.65;;;;;;;14.11;61.87;95289.66;5052393;28;20045;-68
2023/01/18 06:36:11;;;;;;;24.80;3.47;;;;;;;14.60;60.25;95301.97;5052401;28;20088;-64
2023/01/18 06:38:40;;;;;;;18.90;3.55;;;;;;;15.04;58.98;95304.88;5052398;28;20452;-66
2023/01/18 06:41:08;;;;;;;13.75;3.40;;;;;;;15.39;57.08;95309.25;5052247;28;20109;-67
2023/01/18 06:43:36;;;;;;;21.75;3.63;;;;;;;15.58;56.21;95302.56;5052257;28;20045;-65
2023/01/18 06:46:06;;;;;;;26.75;4.90;;;;;;;16.04;55.90;95307.81;5052204;28;20060;-65
2023/01/18 06:48:34;;;;;;;16.67;3.75;;;;;;;16.41;54.34;95309.31;5052121;28;20045;-63
2023/01/18 06:51:01;;;;;;;14.95;3.08;;;;;;;16.28;54.40;95317.34;5052116;28;20045;-62
2023/01/18 06:53:29;;;;;;;23.83;4.40;;;;;;;16.18;54.46;95306.72;5052403;28;20045;-64
2023/01/18 06:56:00;;;;;;;19.42;3.45;;;;;;;16.50;53.42;95319.09;5052155;28;20048;-67
2023/01/18 06:58:29;;;;;;;20.15;3.65;;;;;;;16.97;52.64;95310.03;5052036;28;20103;-67
2023/01/18 07:00:57;;;;;;;21.45;3.90;;;;;;;17.43;51.45;95307.97;5051900;28;20045;-63
2023/01/18 07:03:25;;;;;;;16.05;3.65;;;;;;;17.77;50.13;95309.53;5052113;28;20387;-65
2023/01/18 07:05:53;;;;;;;21.40;3.40;;;;;;;18.03;49.13;95316.97;5051809;28;20085;-65
2023/01/18 07:08:20;;;;;;;17.25;3.38;;;;;;;18.43;48.10;95310.00;5051864;28;20103;-68
2023/01/18 07:10:48;;;;;;;23.33;3.72;;;;;;;18.67;47.49;95295.50;5051785;28;20057;-64
2023/01/18 07:13:16;;;;;;;17.23;3.42;;;;;;;18.76;47.16;95303.63;5052077;28;20120;-69
2023/01/18 07:15:44;;;;;;;20.25;3.42;;;;;;;18.75;47.01;95304.59;5051813;28;20052;-68
2023/01/18 07:18:12;;;;;;;18.50;3.70;;;;;;;19.24;46.36;95309.03;5051427;28;20132;-65
2023/01/18 07:20:39;;;;;;;13.98;3.13;;;;;;;19.54;44.85;95317.75;5051251;28;20049;-62
2023/01/18 07:23:06;;;;;;;15.60;3.38;;;;;;;19.87;44.08;95314.69;5051745;28;20045;-67
2023/01/18 07:25:33;;;;;;;16.08;4.00;;;;;;;20.22;43.50;95307.84;5051482;28;20045;-67
2023/01/18 07:28:01;;;;;;;17.75;3.22;;;;;;;19.97;44.16;95310.19;5051541;28;20051;-65
2023/01/18 07:30:29;;;;;;;15.95;3.33;;;;;;;20.67;42.87;95318.59;5051569;28;20045;-65
2023/01/18 07:32:56;;;;;;;12.73;3.45;;;;;;;21.75;40.76;95330.09;5051495;28;20087;-67
2023/01/18 07:35:24;;;;;;;9.00;2.85;;;;;;;22.05;39.63;95324.41;5051762;28;20044;-68
2023/01/18 07:37:52;;;;;;;14.00;3.30;;;;;;;21.61;39.93;95326.16;5051420;28;20056;-66
2023/01/18 07:40:21;;;;;;;17.33;3.05;;;;;;;21.49;40.84;95322.09;5051420;28;20049;-65
2023/01/18 07:42:48;;;;;;;17.80;4.05;;;;;;;21.69;39.39;95339.53;5051430;28;20045;-65
2023/01/18 07:45:15;;;;;;;19.65;3.58;;;;;;;21.69;39.24;95346.66;5051060;28;20566;-67
2023/01/18 07:47:45;;;;;;;16.45;3.85;;;;;;;21.71;39.84;95342.84;5051270;28;20578;-66
2023/01/18 07:50:12;;;;;;;12.45;2.90;;;;;;;22.37;38.68;95349.50;5051180;28;20132;-65
2023/01/18 07:52:40;;;;;;;17.92;3.58;;;;;;;22.15;39.49;95334.97;5051350;28;20045;-66
2023/01/18 07:55:08;;;;;;;14.68;3.50;;;;;;;21.70;39.41;95338.53;5051231;28;20098;-65
2023/01/18 07:57:36;;;;;;;14.13;4.10;;;;;;;21.78;39.85;95340.44;5051078;28;20405;-66
2023/01/18 08:00:07;;;;;;;17.42;3.00;;;;;;;22.13;39.26;95337.78;5050952;28;20049;-68
2023/01/18 08:02:35;;;;;;;18.33;4.18;;;;;;;22.39;38.46;95342.19;5051103;28;20071;-68
2023/01/18 08:05:04;;;;;;;12.85;3.42;;;;;;;21.44;40.02;95341.19;5050948;28;20053;-69
2023/01/18 08:07:32;;;;;;;12.50;3.38;;;;;;;21.86;39.56;95352.94;5050932;28;20098;-67
2023/01/18 08:10:00;;;;;;;13.02;3.63;;;;;;;21.91;39.24;95339.19;5051016;28;20128;-66
2023/01/18 08:12:27;;;;;;;15.77;3.78;;;;;;;21.62;39.56;95346.47;5050744;28;20096;-66
2023/01/18 08:14:55;;;;;;;12.15;3.45;;;;;;;21.24;40.64;95335.22;5050859;28;20140;-68
2023/01/18 08:17:22;;;;;;;9.15;3.00;;;;;;;21.92;40.37;95339.03;5050714;28;20049;-68
2023/01/18 08:19:49;;;;;;;17.20;3.22;;;;;;;22.06;38.60;95344.72;5050612;28;20058;-64
2023/01/18 08:22:18;;;;;;;15.70;4.07;;;;;;;22.60;38.05;95340.94;5050716;28;20092;-66
2023/01/18 08:24:46;;;;;;;13.30;3.20;;;;;;;22.17;38.31;95347.09;5050595;28;20045;-63
2023/01/18 08:27:13;;;;;;;15.38;3.80;;;;;;;22.61;37.61;95347.94;5050611;28;20525;-66
2023/01/18 08:29:41;;;;;;;16.42;3.15;;;;;;;22.98;37.95;95348.50;5050517;28;20124;-65
2023/01/18 08:32:08;;;;;;;13.65;2.67;;;;;;;22.71;37.86;95355.78;5050550;28;20056;-66
2023/01/18 08:34:35;;;;;;;13.57;3.20;;;;;;;;;;5050683;28;20045;-67
2023/01/18 08:37:02;;;;;;;15.95;3.03;;;;;;;21.93;39.35;95359.31;5050601;28;20572;-69
2023/01/18 08:39:31;;;;;;;16.40;2.92;;;;;;;21.69;39.32;95360.81;5050461;28;20123;-67
2023/01/18 08:41:58;;;;;;;17.17;2.78;;;;;;;21.38;40.68;95350.63;5050577;28;20081;-67
2023/01/18 08:44:26;;;;;;;18.88;3.25;;;;;;;21.48;41.03;95360.31;5050159;28;20406;-64
2023/01/18 08:46:53;;;;;;;15.07;2.97;;;;;;;20.80;41.73;95352.78;5050442;28;20053;-67
2023/01/18 08:49:20;;;;;;;16.38;2.88;;;;;;;20.74;42.63;95377.28;5050231;28;20136;-64
2023/01/18 08:51:47;;;;;;;21.80;4.10;;;;;;;19.96;43.41;95364.25;5050352;28;20513;-64
2023/01/18 08:54:15;;;;;;;16.10;4.00;;;;;;;19.91;44.41;95347.91;5050235;28;20140;-65
2023/01/18 08:56:44;;;;;;;15.45;4.05;;;;;;;19.81;44.61;95355.91;5050135;28;20478;-68
2023/01/18 08:59:12;;;;;;;9.90;2.65;;;;;;;19.73;43.90;95353.97;5050109;28;20109;-66
2023/01/18 09:01:39;;;;;;;17.92;3.65;;;;;;;19.48;45.53;95358.09;5050256;28;20413;-69
2023/01/18 09:04:07;;;;;;;15.75;3.40;;;;;;;19.28;45.91;95355.47;5050272;28;20045;-67
2023/01/18 09:06:35;;;;;;;16.80;3.80;;;;;;;18.99;46.93;95358.97;5050178;28;20055;-66
2023/01/18 09:09:04;;;;;;;13.95;4.07;;;;;;;18.51;46.66;95367.53;5050117;28;20059;-66
2023/01/18 09:11:32;;;;;;;13.43;2.83;;;;;;;18.25;48.21;95360.13;5050092;28;20068;-66
2023/01/18 09:14:01;;;;;;;13.32;3.25;;;;;;;18.19;49.07;95360.66;5049928;28;20667;-64
2023/01/18 09:16:30;;;;;;;16.50;3.47;;;;;;;18.01;48.06;95361.28;5050291;28;20056;-64
2023/01/18 09:18:57;;;;;;;12.20;3.15;;;;;;;17.81;48.95;95355.88;5049795;28;20057;-65
2023/01/18 09:21:26;;;;;;;12.40;3.13;;;;;;;17.68;49.71;95364.06;5049932;28;20049;-66
2023/01/18 09:23:54;;;;;;;15.30;3.13;;;;;;;17.62;49.12;95354.00;5049804;28;20094;-67
2023/01/18 09:26:21;;;;;;;13.25;2.92;;;;;;;17.34;49.38;95356.31;5049790;28;20132;-64
2023/01/18 09:28:51;;;;;;;13.25;2.72;;;;;;;17.04;49.94;95342.88;5049930;28;20470;-65
2023/01/18 09:31:21;;;;;;;14.10;2.83;;;;;;;16.96;50.44;95350.63;5049844;28;20052;-65
2023/01/18 09:33:48;;;;;;;22.67;3.45;;;;;;;16.86;51.34;95347.88;5049748;28;20037;-63
2023/01/18 09:36:17;;;;;;;17.67;2.70;;;;;;;16.89;51.40;95358.19;5049703;28;20049;-66
2023/01/18 09:38:45;;;;;;;16.92;3.10;;;;;;;16.90;51.65;95354.59;5049833;28;20064;-62
2023/01/18 09:41:27;;;;;;;14.63;2.40;;;;;;;17.01;50.72;95360.81;5049677;28;20080;-65
2023/01/18 09:43:57;;;;;;;12.57;2.67;;;;;;;16.99;51.20;95366.22;5053049;28;20082;-63
2023/01/18 09:46:28;;;;;;;16.75;3.60;;;;;;;16.96;52.00;95379.66;5053104;28;20060;-67
2023/01/18 09:48:58;;;;;;;12.18;2.60;;;;;;;17.08;51.75;95377.84;5053255;28;20091;-67
2023/01/18 09:51:31;;;;;;;9.23;2.53;;;;;;;17.11;51.51;95363.53;5053229;28;20101;-64
2023/01/18 09:54:09;;;;;;;12.00;3.00;;;;;;;17.35;51.64;95363.28;5052966;28;20045;-66
2023/01/18 09:56:47;;;;;;;17.52;3.03;;;;;;;17.59;51.30;95372.75;5052909;28;20041;-65
2023/01/18 09:59:25;;;;;;;21.88;3.45;;;;;;;17.79;50.20;95376.34;5053227;28;20052;-66
2023/01/18 10:01:55;;;;;;;13.38;2.60;;;;;;;17.64;48.82;95367.91;5052962;28;20088;-66
2023/01/18 10:04:29;;;;;;;13.93;2.93;;;;;;;17.77;50.17;95374.78;5052880;28;20482;-67
2023/01/18 10:07:00;;;;;;;15.07;3.00;;;;;;;17.81;48.44;95373.56;5052847;28;20049;-68
2023/01/18 10:09:32;;;;;;;10.32;2.58;;;;;;;17.66;50.17;95378.34;5052746;28;20049;-67
2023/01/18 10:12:02;;;;;;;20.20;3.45;;;;;;;17.59;50.68;95364.81;5052663;28;20092;-65
2023/01/18 10:14:46;;;;;;;14.00;2.97;;;;;;;17.68;49.95;95385.19;5052703;28;20045;-66
2023/01/18 10:17:17;;;;;;;15.45;3.17;;;;;;;17.55;50.86;95372.16;5052665;28;20076;-62
2023/01/18 10:19:45;;;;;;;12.30;2.83;;;;;;;17.65;50.24;95372.25;5052664;28;20052;-63
2023/01/18 10:22:20;;;;;;;12.73;2.08;;;;;;;17.75;50.04;95367.00;5052832;28;20554;-67
2023/01/18 10:24:58;;;;;;;18.98;3.05;;;;;;;17.85;49.55;95377.59;5052627;28;20079;-66
2023/01/18 10:27:57;;;;;;;11.55;2.83;;;;;;;17.99;50.26;95367.63;5052544;28;20052;-65
2023/01/18 10:30:40;;;;;;;18.15;3.22;;;;;;;18.03;49.07;95369.06;5056311;28;20064;-66
2023/01/18 10:33:18;;;;;;;11.02;2.50;;;;;;;17.96;48.48;95359.97;5052396;28;20055;-63
2023/01/18 10:35:48;;;;;;;12.18;2.30;;;;;;;17.71;47.20;95378.81;5052349;28;20060;-68
2023/01/18 10:38:18;;;;;;;;;;;;;;;17.25;47.46;95379.06;5052730;28;20101;-66
2023/01/18 10:40:50;;;;;;;10.88;2.22;;;;;;;17.03;48.60;95375.56;5052338;28;19932;-65
2023/01/18 10:43:24;;;;;;;16.27;2.50;;;;;;;16.85;48.18;95369.13;5052350;28;20128;-65
2023/01/18 10:45:53;;;;;;;12.48;2.00;;;;;;;16.69;48.45;95367.75;5052011;28;20049;-67
2023/01/18 10:48:29;;;;;;;11.70;2.22;;;;;;;16.48;48.14;95362.41;5052167;28;20136;-65
2023/01/18 10:50:59;;;;;;;12.48;2.15;;;;;;;16.47;48.64;95377.44;5052290;28;20088;-64
2023/01/18 10:53:32;;;;;;;7.53;2.28;;;;;;;16.35;49.34;95362.56;5051112;28;20414;-68
2023/01/18 10:56:04;;;;;;;13.65;2.53;;;;;;;16.20;49.99;95359.34;5052061;28;20136;-68
2023/01/18 10:58:37;;;;;;;11.25;2.25;;;;;;;16.06;49.41;95344.63;5052035;28;20065;-67
2023/01/18 11:01:05;;;;;;;10.25;2.40;;;;;;;16.01;49.79;95348.47;5051971;28;20045;-68
2023/01/18 11:03:45;;;;;;;12.25;2.30;;;;;;;16.07;50.41;95349.78;5052060;28;20049;-68
2023/01/18 11:06:15;;;;;;;8.35;1.70;;;;;;;16.18;50.53;95348.94;5051837;28;20110;-68
2023/01/18 11:08:43;;;;;;;11.60;2.55;;;;;;;16.34;50.04;95351.16;5051872;28;20053;-69
2023/01/18 11:11:18;;;;;;;8.95;2.00;;;;;;;16.48;50.04;95357.13;5051812;28;20098;-64
2023/01/18 11:13:52;;;;;;;14.32;2.45;;;;;;;16.47;49.93;95351.03;5051830;28;20045;-65
2023/01/18 11:16:21;;;;;;;14.48;2.75;;;;;;;16.41;49.94;95355.00;5051786;28;20045;-65
2023/01/18 11:18:59;;;;;;;13.77;2.55;;;;;;;16.57;50.51;95374.88;5051885;28;20049;-68
2023/01/18 11:21:39;;;;;;;15.43;2.17;;;;;;;16.65;49.41;95390.91;5051655;28;20048;-64
2023/01/18 11:24:12;;;;;;;10.48;2.40;;;;;;;16.61;49.33;95386.00;5051598;28;20577;-62
2023/01/18 11:26:53;;;;;;;8.88;2.67;;;;;;;16.51;49.40;95407.03;5051593;27;20085;-63
2023/01/18 11:29:25;;;;;;;14.20;2.30;;;;;;;16.47;49.48;95400.34;5051521;28;20045;-64
2023/01/18 11:31:55;;;;;;;17.33;2.50;;;;;;;16.47;49.72;95401.19;5051582;28;20133;-65
2023/01/18 11:34:29;;;;;;;12.95;2.22;;;;;;;16.43;48.72;95407.66;5051662;28;20076;-65
2023/01/18 11:36:59;;;;;;;11.45;2.22;;;;;;;16.37;49.39;95403.69;5051434;28;20121;-67
2023/01/18 11:39:27;;;;;;;;;;;;;;;16.31;49.24;95408.63;5051793;28;20049;-66
2023/01/18 11:42:27;;;;;;;13.70;2.78;;;;;;;16.29;49.06;95416.69;5051302;28;19927;-65
2023/01/18 11:45:05;;;;;;;18.42;2.83;;;;;;;16.30;50.76;95397.22;5051148;28;20546;-65
2023/01/18 11:47:51;;;;;;;10.15;2.65;;;;;;;16.32;50.23;95413.78;5051124;28;20049;-66
2023/01/18 11:50:29;;;;;;;17.50;2.53;;;;;;;16.40;48.97;95408.72;5051114;28;20483;-65
2023/01/18 11:53:04;;;;;;;15.13;3.00;;;;;;;16.40;48.73;95419.28;5051129;28;20074;-67
2023/01/18 11:55:36;;;;;;;10.70;2.60;;;;;;;16.30;49.12;95410.44;5051053;28;20132;-65
2023/01/18 11:58:07;;;;;;;12.45;2.10;;;;;;;16.25;49.29;95396.75;5051067;28;20102;-64
2023/01/18 12:00:47;;;;;;;19.75;2.38;;;;;;;16.25;49.48;95400.22;5051263;28;20045;-67
2023/01/18 12:03:34;;;;;;;17.05;3.35;;;;;;;16.19;50.30;95408.63;5051105;28;20413;-65
2023/01/18 12:06:10;;;;;;;11.80;2.20;;;;;;;16.19;49.86;95410.44;5050502;28;20041;-65
2023/01/18 12:08:58;;;;;;;21.40;2.80;;;;;;;16.18;50.06;95404.31;5050966;28;20050;-66
2023/01/18 12:11:39;;;;;;;12.07;2.05;;;;;;;16.16;50.14;95407.09;5049230;28;20102;-65
2023/01/18 12:14:19;;;;;;;16.10;3.25;;;;;;;16.15;49.54;95415.13;5050740;28;20056;-65
2023/01/18 12:17:04;;;;;;;12.73;2.40;;;;;;;16.18;50.38;95409.59;5050850;28;20570;-66